Terminal Aerodrome Forecast
Issued by NWS

Home | Current Version | Previous Version | Text Only | Print | Product List | Glossary Off
Versions: 1 2 3 4 5 6 7 8 9 10 11 12 13 14 15 16 17 18 19 20 21 22

298
FTUS43 KUNR 170925 AAC
TAFGCC
TAF AMD
KGCC 170925Z 1709/1806 36006KT 4SM -SN BKN015
      TEMPO 1709/1712 1SM -SN BKN005
     FM171200 36009KT P6SM BKN040
     FM171800 34013KT P6SM VCSH OVC020
     FM180000 32013KT P6SM SCT025 BKN040=

USA.gov is the U.S. government's official web portal to all federal, state and local government web resources and services.